sensor_id;sensor_type;location;lat;lon;timestamp;temperature;humidity
3638;DHT22;1835;50.068;8.154;2023-02-28T00:01:42;1.40;91.00
3638;DHT22;1835;50.068;8.154;2023-02-28T00:04:10;1.50;90.90
3638;DHT22;1835;50.068;8.154;2023-02-28T00:06:38;1.70;91.30
3638;DHT22;1835;50.068;8.154;2023-02-28T00:09:06;1.90;91.00
3638;DHT22;1835;50.068;8.154;2023-02-28T00:11:34;2.00;90.80
3638;DHT22;1835;50.068;8.154;2023-02-28T00:14:05;2.00;90.40
3638;DHT22;1835;50.068;8.154;2023-02-28T00:16:33;2.00;90.60
3638;DHT22;1835;50.068;8.154;2023-02-28T00:19:01;2.00;90.70
3638;DHT22;1835;50.068;8.154;2023-02-28T00:21:29;1.90;91.30
3638;DHT22;1835;50.068;8.154;2023-02-28T00:23:58;1.80;91.60
3638;DHT22;1835;50.068;8.154;2023-02-28T00:26:26;2.00;91.60
3638;DHT22;1835;50.068;8.154;2023-02-28T00:28:54;2.00;91.20
3638;DHT22;1835;50.068;8.154;2023-02-28T00:31:23;2.10;91.10
3638;DHT22;1835;50.068;8.154;2023-02-28T00:33:52;2.00;91.50
3638;DHT22;1835;50.068;8.154;2023-02-28T00:36:20;2.10;91.30
3638;DHT22;1835;50.068;8.154;2023-02-28T00:38:48;2.00;91.10
3638;DHT22;1835;50.068;8.154;2023-02-28T00:41:16;2.00;91.60
3638;DHT22;1835;50.068;8.154;2023-02-28T00:43:44;1.90;91.60
3638;DHT22;1835;50.068;8.154;2023-02-28T00:46:12;1.80;91.50
3638;DHT22;1835;50.068;8.154;2023-02-28T00:48:42;1.80;91.70
3638;DHT22;1835;50.068;8.154;2023-02-28T00:51:10;1.90;92.00
3638;DHT22;1835;50.068;8.154;2023-02-28T00:53:38;1.80;91.60
3638;DHT22;1835;50.068;8.154;2023-02-28T00:56:06;1.60;92.70
3638;DHT22;1835;50.068;8.154;2023-02-28T00:58:34;1.60;92.20
3638;DHT22;1835;50.068;8.154;2023-02-28T01:01:03;1.50;92.60
3638;DHT22;1835;50.068;8.154;2023-02-28T01:03:31;1.60;93.20
3638;DHT22;1835;50.068;8.154;2023-02-28T01:06:00;1.50;93.60
3638;DHT22;1835;50.068;8.154;2023-02-28T01:08:28;1.50;93.80
3638;DHT22;1835;50.068;8.154;2023-02-28T01:10:57;1.30;94.70
3638;DHT22;1835;50.068;8.154;2023-02-28T01:13:25;1.00;95.20
3638;DHT22;1835;50.068;8.154;2023-02-28T01:15:55;1.10;96.30
3638;DHT22;1835;50.068;8.154;2023-02-28T01:18:23;1.20;96.30
3638;DHT22;1835;50.068;8.154;2023-02-28T01:20:52;1.10;96.40
3638;DHT22;1835;50.068;8.154;2023-02-28T01:23:22;1.00;96.50
3638;DHT22;1835;50.068;8.154;2023-02-28T01:25:51;0.80;97.00
3638;DHT22;1835;50.068;8.154;2023-02-28T01:28:19;1.00;97.60
3638;DHT22;1835;50.068;8.154;2023-02-28T01:30:48;0.90;97.30
3638;DHT22;1835;50.068;8.154;2023-02-28T01:33:16;0.90;97.50
3638;DHT22;1835;50.068;8.154;2023-02-28T01:35:44;0.70;97.40
3638;DHT22;1835;50.068;8.154;2023-02-28T01:38:12;0.80;97.70
3638;DHT22;1835;50.068;8.154;2023-02-28T01:40:50;0.60;97.60
3638;DHT22;1835;50.068;8.154;2023-02-28T01:43:23;0.80;97.50
3638;DHT22;1835;50.068;8.154;2023-02-28T01:45:54;0.70;97.80
3638;DHT22;1835;50.068;8.154;2023-02-28T01:48:25;0.70;98.10
3638;DHT22;1835;50.068;8.154;2023-02-28T01:50:57;0.80;98.30
3638;DHT22;1835;50.068;8.154;2023-02-28T01:53:33;1.10;98.50
3638;DHT22;1835;50.068;8.154;2023-02-28T01:56:06;1.00;98.90
3638;DHT22;1835;50.068;8.154;2023-02-28T01:58:36;0.90;98.70
3638;DHT22;1835;50.068;8.154;2023-02-28T02:01:04;0.90;98.70
3638;DHT22;1835;50.068;8.154;2023-02-28T02:03:32;1.00;98.60
3638;DHT22;1835;50.068;8.154;2023-02-28T02:06:03;0.90;98.30
3638;DHT22;1835;50.068;8.154;2023-02-28T02:08:31;0.80;98.40
3638;DHT22;1835;50.068;8.154;2023-02-28T02:11:01;0.70;98.80
3638;DHT22;1835;50.068;8.154;2023-02-28T02:13:38;0.70;98.90
3638;DHT22;1835;50.068;8.154;2023-02-28T02:16:28;0.80;99.00
3638;DHT22;1835;50.068;8.154;2023-02-28T02:19:11;0.90;98.60
3638;DHT22;1835;50.068;8.154;2023-02-28T02:22:02;1.00;98.30
3638;DHT22;1835;50.068;8.154;2023-02-28T02:25:06;0.90;98.00
3638;DHT22;1835;50.068;8.154;2023-02-28T02:28:35;1.00;98.50
3638;DHT22;1835;50.068;8.154;2023-02-28T02:37:26;0.80;99.20
3638;DHT22;1835;50.068;8.154;2023-02-28T02:40:03;0.70;99.30
3638;DHT22;1835;50.068;8.154;2023-02-28T02:42:40;0.60;99.70
3638;DHT22;1835;50.068;8.154;2023-02-28T02:45:14;0.50;99.90
3638;DHT22;1835;50.068;8.154;2023-02-28T02:47:45;0.70;99.90
3638;DHT22;1835;50.068;8.154;2023-02-28T02:50:18;0.80;99.80
3638;DHT22;1835;50.068;8.154;2023-02-28T02:52:51;0.70;99.90
3638;DHT22;1835;50.068;8.154;2023-02-28T02:55:22;0.50;99.90
3638;DHT22;1835;50.068;8.154;2023-02-28T02:57:53;0.30;99.90
3638;DHT22;1835;50.068;8.154;2023-02-28T03:00:26;0.20;99.90
3638;DHT22;1835;50.068;8.154;2023-02-28T03:02:59;0.00;99.90
3638;DHT22;1835;50.068;8.154;2023-02-28T03:05:34;0.00;99.90
3638;DHT22;1835;50.068;8.154;2023-02-28T03:08:03;-0.30;99.90
3638;DHT22;1835;50.068;8.154;2023-02-28T03:10:36;-0.10;99.90
3638;DHT22;1835;50.068;8.154;2023-02-28T03:13:23;-0.10;99.90
3638;DHT22;1835;50.068;8.154;2023-02-28T03:16:18;0.00;99.90
3638;DHT22;1835;50.068;8.154;2023-02-28T03:19:34;-0.30;99.90
3638;DHT22;1835;50.068;8.154;2023-02-28T03:22:35;-0.30;99.90
3638;DHT22;1835;50.068;8.154;2023-02-28T03:25:14;0.00;99.90
3638;DHT22;1835;50.068;8.154;2023-02-28T03:27:53;-0.30;99.90
3638;DHT22;1835;50.068;8.154;2023-02-28T03:30:35;-0.30;99.90
3638;DHT22;1835;50.068;8.154;2023-02-28T03:33:09;-0.30;99.90
3638;DHT22;1835;50.068;8.154;2023-02-28T03:35:42;-0.30;99.90
3638;DHT22;1835;50.068;8.154;2023-02-28T03:38:18;-0.50;99.90
3638;DHT22;1835;50.068;8.154;2023-02-28T03:40:53;-0.60;99.90
3638;DHT22;1835;50.068;8.154;2023-02-28T03:43:28;-0.40;99.90
3638;DHT22;1835;50.068;8.154;2023-02-28T03:46:01;-0.20;99.90
3638;DHT22;1835;50.068;8.154;2023-02-28T03:48:36;-0.10;99.90
3638;DHT22;1835;50.068;8.154;2023-02-28T03:51:08;-0.10;99.90
3638;DHT22;1835;50.068;8.154;2023-02-28T03:53:42;0.00;99.90
3638;DHT22;1835;50.068;8.154;2023-02-28T03:56:16;-0.10;99.90
3638;DHT22;1835;50.068;8.154;2023-02-28T03:58:51;-0.10;99.90
3638;DHT22;1835;50.068;8.154;2023-02-28T04:01:24;0.10;99.90
3638;DHT22;1835;50.068;8.154;2023-02-28T04:03:55;0.00;99.90
3638;DHT22;1835;50.068;8.154;2023-02-28T04:06:23;-0.10;99.90
3638;DHT22;1835;50.068;8.154;2023-02-28T04:08:53;0.00;99.90
3638;DHT22;1835;50.068;8.154;2023-02-28T04:11:32;0.10;99.90
3638;DHT22;1835;50.068;8.154;2023-02-28T04:14:01;-0.20;99.90
3638;DHT22;1835;50.068;8.154;2023-02-28T04:16:30;-0.10;99.90
3638;DHT22;1835;50.068;8.154;2023-02-28T04:19:01;-0.20;99.90
3638;DHT22;1835;50.068;8.154;2023-02-28T04:21:33;-0.40;99.90
3638;DHT22;1835;50.068;8.154;2023-02-28T04:24:04;-0.40;99.90
3638;DHT22;1835;50.068;8.154;2023-02-28T04:26:34;-0.40;99.90
3638;DHT22;1835;50.068;8.154;2023-02-28T04:29:05;-0.30;99.90
3638;DHT22;1835;50.068;8.154;2023-02-28T04:31:33;-0.30;99.90
3638;DHT22;1835;50.068;8.154;2023-02-28T04:34:02;-0.10;99.90
3638;DHT22;1835;50.068;8.154;2023-02-28T04:36:30;-0.10;99.90
3638;DHT22;1835;50.068;8.154;2023-02-28T04:38:58;0.00;99.90
3638;DHT22;1835;50.068;8.154;2023-02-28T04:41:28;-0.10;99.90
3638;DHT22;1835;50.068;8.154;2023-02-28T04:43:58;-0.20;99.90
3638;DHT22;1835;50.068;8.154;2023-02-28T04:46:26;-0.20;99.90
3638;DHT22;1835;50.068;8.154;2023-02-28T04:48:54;-0.20;99.90
3638;DHT22;1835;50.068;8.154;2023-02-28T04:51:22;-0.30;99.90
3638;DHT22;1835;50.068;8.154;2023-02-28T04:53:50;-0.20;99.90
3638;DHT22;1835;50.068;8.154;2023-02-28T04:56:19;-0.10;99.90
3638;DHT22;1835;50.068;8.154;2023-02-28T04:58:49;-0.10;99.90
3638;DHT22;1835;50.068;8.154;2023-02-28T05:01:22;-0.10;99.50
3638;DHT22;1835;50.068;8.154;2023-02-28T05:03:53;0.00;99.90
3638;DHT22;1835;50.068;8.154;2023-02-28T05:06:24;0.00;99.90
3638;DHT22;1835;50.068;8.154;2023-02-28T05:08:53;-0.10;99.90
3638;DHT22;1835;50.068;8.154;2023-02-28T05:11:24;0.10;99.70
3638;DHT22;1835;50.068;8.154;2023-02-28T05:13:57;0.10;99.90
3638;DHT22;1835;50.068;8.154;2023-02-28T05:16:25;-0.10;99.90
3638;DHT22;1835;50.068;8.154;2023-02-28T05:18:53;-0.20;99.90
3638;DHT22;1835;50.068;8.154;2023-02-28T05:21:28;0.00;99.90
3638;DHT22;1835;50.068;8.154;2023-02-28T05:23:59;0.10;99.90
3638;DHT22;1835;50.068;8.154;2023-02-28T05:26:29;-0.10;99.90
3638;DHT22;1835;50.068;8.154;2023-02-28T05:28:59;-0.10;99.90
3638;DHT22;1835;50.068;8.154;2023-02-28T05:31:27;-0.20;99.90
3638;DHT22;1835;50.068;8.154;2023-02-28T05:33:56;0.00;99.90
3638;DHT22;1835;50.068;8.154;2023-02-28T05:36:24;-0.10;99.90
3638;DHT22;1835;50.068;8.154;2023-02-28T05:38:52;-0.20;99.90
3638;DHT22;1835;50.068;8.154;2023-02-28T05:41:20;-0.30;99.90
3638;DHT22;1835;50.068;8.154;2023-02-28T05:43:49;-0.50;99.90
3638;DHT22;1835;50.068;8.154;2023-02-28T05:46:18;-0.50;99.90
3638;DHT22;1835;50.068;8.154;2023-02-28T05:48:48;-0.50;99.90
3638;DHT22;1835;50.068;8.154;2023-02-28T05:51:16;-0.60;99.90
3638;DHT22;1835;50.068;8.154;2023-02-28T05:53:45;-0.40;99.90
3638;DHT22;1835;50.068;8.154;2023-02-28T05:56:14;-0.30;99.90
3638;DHT22;1835;50.068;8.154;2023-02-28T05:58:43;-0.20;99.90
3638;DHT22;1835;50.068;8.154;2023-02-28T06:01:23;-0.50;99.90
3638;DHT22;1835;50.068;8.154;2023-02-28T06:04:02;-0.40;99.90
3638;DHT22;1835;50.068;8.154;2023-02-28T06:06:31;-0.50;99.90
3638;DHT22;1835;50.068;8.154;2023-02-28T06:09:03;-0.50;99.90
3638;DHT22;1835;50.068;8.154;2023-02-28T06:11:32;-0.40;99.90
3638;DHT22;1835;50.068;8.154;2023-02-28T06:14:18;-0.30;99.90
3638;DHT22;1835;50.068;8.154;2023-02-28T06:16:49;-0.40;99.90
3638;DHT22;1835;50.068;8.154;2023-02-28T06:19:17;-0.10;99.90
3638;DHT22;1835;50.068;8.154;2023-02-28T06:21:45;-0.10;99.90
3638;DHT22;1835;50.068;8.154;2023-02-28T06:24:17;0.10;99.90
3638;DHT22;1835;50.068;8.154;2023-02-28T06:26:45;0.10;99.90
3638;DHT22;1835;50.068;8.154;2023-02-28T06:29:13;0.00;99.90
3638;DHT22;1835;50.068;8.154;2023-02-28T06:31:43;-0.10;99.90
3638;DHT22;1835;50.068;8.154;2023-02-28T06:34:14;0.00;99.90
3638;DHT22;1835;50.068;8.154;2023-02-28T06:36:50;0.00;99.90
3638;DHT22;1835;50.068;8.154;2023-02-28T06:39:19;0.00;99.90
3638;DHT22;1835;50.068;8.154;2023-02-28T06:41:47;-0.20;99.90
3638;DHT22;1835;50.068;8.154;2023-02-28T06:44:22;-0.10;99.90
3638;DHT22;1835;50.068;8.154;2023-02-28T06:46:51;0.00;99.90
3638;DHT22;1835;50.068;8.154;2023-02-28T06:49:20;-0.10;99.90
3638;DHT22;1835;50.068;8.154;2023-02-28T06:51:48;0.10;99.90
3638;DHT22;1835;50.068;8.154;2023-02-28T06:54:17;0.10;99.00
3638;DHT22;1835;50.068;8.154;2023-02-28T06:56:45;0.30;98.00
3638;DHT22;1835;50.068;8.154;2023-02-28T06:59:13;0.10;97.90
3638;DHT22;1835;50.068;8.154;2023-02-28T07:01:41;0.30;97.90
3638;DHT22;1835;50.068;8.154;2023-02-28T07:04:09;0.30;97.50
3638;DHT22;1835;50.068;8.154;2023-02-28T07:06:39;0.30;97.20
3638;DHT22;1835;50.068;8.154;2023-02-28T07:09:07;0.50;96.60
3638;DHT22;1835;50.068;8.154;2023-02-28T07:11:35;0.70;96.20
3638;DHT22;1835;50.068;8.154;2023-02-28T07:14:03;0.60;96.20
3638;DHT22;1835;50.068;8.154;2023-02-28T07:16:31;0.70;96.00
3638;DHT22;1835;50.068;8.154;2023-02-28T07:19:00;0.80;94.80
3638;DHT22;1835;50.068;8.154;2023-02-28T07:21:28;1.00;94.20
3638;DHT22;1835;50.068;8.154;2023-02-28T07:23:58;0.80;93.70
3638;DHT22;1835;50.068;8.154;2023-02-28T07:26:26;1.00;93.70
3638;DHT22;1835;50.068;8.154;2023-02-28T07:28:54;0.80;92.70
3638;DHT22;1835;50.068;8.154;2023-02-28T07:31:22;1.40;92.70
3638;DHT22;1835;50.068;8.154;2023-02-28T07:33:50;2.10;91.50
3638;DHT22;1835;50.068;8.154;2023-02-28T07:36:18;2.90;88.80
3638;DHT22;1835;50.068;8.154;2023-02-28T07:38:47;3.70;85.80
3638;DHT22;1835;50.068;8.154;2023-02-28T07:41:19;4.30;80.50
3638;DHT22;1835;50.068;8.154;2023-02-28T07:43:48;4.70;76.50
3638;DHT22;1835;50.068;8.154;2023-02-28T07:46:17;5.70;74.30
3638;DHT22;1835;50.068;8.154;2023-02-28T07:48:46;6.00;69.80
3638;DHT22;1835;50.068;8.154;2023-02-28T07:51:14;6.20;66.10
3638;DHT22;1835;50.068;8.154;2023-02-28T07:53:42;6.40;64.80
3638;DHT22;1835;50.068;8.154;2023-02-28T07:56:10;7.10;63.10
3638;DHT22;1835;50.068;8.154;2023-02-28T07:58:40;7.00;60.00
3638;DHT22;1835;50.068;8.154;2023-02-28T08:01:10;7.30;59.60
3638;DHT22;1835;50.068;8.154;2023-02-28T08:03:39;7.40;57.50
3638;DHT22;1835;50.068;8.154;2023-02-28T08:06:09;7.10;56.90
3638;DHT22;1835;50.068;8.154;2023-02-28T08:08:45;7.20;58.20
3638;DHT22;1835;50.068;8.154;2023-02-28T08:11:17;7.60;57.30
3638;DHT22;1835;50.068;8.154;2023-02-28T08:13:51;7.80;57.90
3638;DHT22;1835;50.068;8.154;2023-02-28T08:16:19;8.50;56.50
3638;DHT22;1835;50.068;8.154;2023-02-28T08:18:49;8.10;54.00
3638;DHT22;1835;50.068;8.154;2023-02-28T08:21:18;8.40;54.30
3638;DHT22;1835;50.068;8.154;2023-02-28T08:23:47;8.70;54.60
3638;DHT22;1835;50.068;8.154;2023-02-28T08:26:16;8.80;54.60
3638;DHT22;1835;50.068;8.154;2023-02-28T08:28:44;9.30;53.20
3638;DHT22;1835;50.068;8.154;2023-02-28T08:31:15;9.50;52.30
3638;DHT22;1835;50.068;8.154;2023-02-28T08:33:44;9.50;50.10
3638;DHT22;1835;50.068;8.154;2023-02-28T08:36:18;9.50;52.00
3638;DHT22;1835;50.068;8.154;2023-02-28T08:38:46;9.20;50.00
3638;DHT22;1835;50.068;8.154;2023-02-28T08:41:14;9.00;51.40
3638;DHT22;1835;50.068;8.154;2023-02-28T08:43:42;8.40;51.70
3638;DHT22;1835;50.068;8.154;2023-02-28T08:46:13;7.90;51.40
3638;DHT22;1835;50.068;8.154;2023-02-28T08:48:41;7.10;54.00
3638;DHT22;1835;50.068;8.154;2023-02-28T08:51:13;6.90;55.20
3638;DHT22;1835;50.068;8.154;2023-02-28T08:53:45;6.70;54.30
3638;DHT22;1835;50.068;8.154;2023-02-28T08:56:16;6.90;54.80
3638;DHT22;1835;50.068;8.154;2023-02-28T08:58:45;7.10;55.70
3638;DHT22;1835;50.068;8.154;2023-02-28T09:01:16;7.00;54.20
3638;DHT22;1835;50.068;8.154;2023-02-28T09:03:46;6.80;54.40
3638;DHT22;1835;50.068;8.154;2023-02-28T09:06:17;6.70;55.60
3638;DHT22;1835;50.068;8.154;2023-02-28T09:08:46;7.40;55.80
3638;DHT22;1835;50.068;8.154;2023-02-28T09:11:14;8.30;55.20
3638;DHT22;1835;50.068;8.154;2023-02-28T09:13:42;8.60;53.90
3638;DHT22;1835;50.068;8.154;2023-02-28T09:16:12;8.80;53.60
3638;DHT22;1835;50.068;8.154;2023-02-28T09:18:44;8.70;52.60
3638;DHT22;1835;50.068;8.154;2023-02-28T09:21:14;8.60;52.40
3638;DHT22;1835;50.068;8.154;2023-02-28T09:23:44;8.10;53.60
3638;DHT22;1835;50.068;8.154;2023-02-28T09:26:13;9.40;56.00
3638;DHT22;1835;50.068;8.154;2023-02-28T09:28:42;10.40;53.80
3638;DHT22;1835;50.068;8.154;2023-02-28T09:31:13;10.70;49.60
3638;DHT22;1835;50.068;8.154;2023-02-28T09:33:44;9.80;49.10
3638;DHT22;1835;50.068;8.154;2023-02-28T09:36:12;9.10;50.60
3638;DHT22;1835;50.068;8.154;2023-02-28T09:38:40;9.30;50.80
3638;DHT22;1835;50.068;8.154;2023-02-28T09:41:13;9.00;51.70
3638;DHT22;1835;50.068;8.154;2023-02-28T09:43:45;9.70;53.00
3638;DHT22;1835;50.068;8.154;2023-02-28T09:46:31;10.40;51.00
3638;DHT22;1835;50.068;8.154;2023-02-28T09:49:07;10.50;50.00
3638;DHT22;1835;50.068;8.154;2023-02-28T09:51:48;10.70;51.70
3638;DHT22;1835;50.068;8.154;2023-02-28T09:54:20;10.70;48.80
3638;DHT22;1835;50.068;8.154;2023-02-28T09:56:51;10.70;46.40
3638;DHT22;1835;50.068;8.154;2023-02-28T09:59:31;10.20;46.40
3638;DHT22;1835;50.068;8.154;2023-02-28T10:02:20;10.30;48.00
3638;DHT22;1835;50.068;8.154;2023-02-28T10:05:11;10.50;48.90
3638;DHT22;1835;50.068;8.154;2023-02-28T10:07:50;11.20;47.10
3638;DHT22;1835;50.068;8.154;2023-02-28T10:10:29;11.20;45.50
3638;DHT22;1835;50.068;8.154;2023-02-28T10:13:04;11.40;45.80
3638;DHT22;1835;50.068;8.154;2023-02-28T10:15:34;11.10;46.60
3638;DHT22;1835;50.068;8.154;2023-02-28T10:18:04;11.50;48.00
3638;DHT22;1835;50.068;8.154;2023-02-28T10:20:41;11.70;46.20
3638;DHT22;1835;50.068;8.154;2023-02-28T10:23:15;11.20;44.90
3638;DHT22;1835;50.068;8.154;2023-02-28T10:25:53;11.20;44.90
3638;DHT22;1835;50.068;8.154;2023-02-28T10:28:25;11.20;44.90
3638;DHT22;1835;50.068;8.154;2023-02-28T10:31:00;10.80;44.90
3638;DHT22;1835;50.068;8.154;2023-02-28T10:33:30;10.40;44.60
3638;DHT22;1835;50.068;8.154;2023-02-28T10:36:00;10.00;45.10
3638;DHT22;1835;50.068;8.154;2023-02-28T10:38:34;9.90;47.30
3638;DHT22;1835;50.068;8.154;2023-02-28T10:41:04;9.70;46.80
3638;DHT22;1835;50.068;8.154;2023-02-28T10:43:34;9.40;46.60
3638;DHT22;1835;50.068;8.154;2023-02-28T10:46:05;9.50;47.60
3638;DHT22;1835;50.068;8.154;2023-02-28T10:48:44;9.80;48.00
3638;DHT22;1835;50.068;8.154;2023-02-28T10:51:18;9.90;46.50
3638;DHT22;1835;50.068;8.154;2023-02-28T10:53:51;10.30;45.70
3638;DHT22;1835;50.068;8.154;2023-02-28T10:56:28;10.40;45.00
3638;DHT22;1835;50.068;8.154;2023-02-28T10:58:59;9.30;46.60
3638;DHT22;1835;50.068;8.154;2023-02-28T11:01:39;9.00;47.50
3638;DHT22;1835;50.068;8.154;2023-02-28T11:04:19;8.90;48.90
3638;DHT22;1835;50.068;8.154;2023-02-28T11:07:03;8.50;48.00
3638;DHT22;1835;50.068;8.154;2023-02-28T11:09:34;8.50;49.30
3638;DHT22;1835;50.068;8.154;2023-02-28T11:12:05;9.50;48.50
3638;DHT22;1835;50.068;8.154;2023-02-28T11:14:46;9.30;46.10
3638;DHT22;1835;50.068;8.154;2023-02-28T11:17:20;9.60;47.60
3638;DHT22;1835;50.068;8.154;2023-02-28T11:19:51;9.90;46.40
3638;DHT22;1835;50.068;8.154;2023-02-28T11:22:25;10.60;46.70
3638;DHT22;1835;50.068;8.154;2023-02-28T11:24:57;11.40;43.90
3638;DHT22;1835;50.068;8.154;2023-02-28T11:27:49;11.30;44.90
3638;DHT22;1835;50.068;8.154;2023-02-28T11:30:29;10.30;43.60
3638;DHT22;1835;50.068;8.154;2023-02-28T11:32:58;9.20;45.40
3638;DHT22;1835;50.068;8.154;2023-02-28T11:35:30;9.00;46.90
3638;DHT22;1835;50.068;8.154;2023-02-28T11:38:05;9.20;48.50
3638;DHT22;1835;50.068;8.154;2023-02-28T11:40:41;10.10;46.40
3638;DHT22;1835;50.068;8.154;2023-02-28T11:43:24;11.10;46.00
3638;DHT22;1835;50.068;8.154;2023-02-28T11:46:14;10.60;43.50
3638;DHT22;1835;50.068;8.154;2023-02-28T11:48:52;10.40;44.40
3638;DHT22;1835;50.068;8.154;2023-02-28T11:51:29;10.40;44.30
3638;DHT22;1835;50.068;8.154;2023-02-28T11:54:24;10.90;44.50
3638;DHT22;1835;50.068;8.154;2023-02-28T11:57:00;11.10;44.50
3638;DHT22;1835;50.068;8.154;2023-02-28T11:59:51;11.10;43.70
3638;DHT22;1835;50.068;8.154;2023-02-28T12:02:26;11.00;44.60
3638;DHT22;1835;50.068;8.154;2023-02-28T12:05:12;10.70;45.20
3638;DHT22;1835;50.068;8.154;2023-02-28T12:07:54;11.20;44.80
3638;DHT22;1835;50.068;8.154;2023-02-28T12:10:29;11.70;44.00
3638;DHT22;1835;50.068;8.154;2023-02-28T12:13:10;10.70;42.00
3638;DHT22;1835;50.068;8.154;2023-02-28T12:16:00;10.40;43.60
3638;DHT22;1835;50.068;8.154;2023-02-28T12:19:13;9.70;44.20
3638;DHT22;1835;50.068;8.154;2023-02-28T12:21:59;9.30;45.60
3638;DHT22;1835;50.068;8.154;2023-02-28T12:25:00;8.70;46.50
3638;DHT22;1835;50.068;8.154;2023-02-28T12:27:51;8.60;48.20
3638;DHT22;1835;50.068;8.154;2023-02-28T12:30:23;8.20;49.20
3638;DHT22;1835;50.068;8.154;2023-02-28T12:32:55;8.10;47.70
3638;DHT22;1835;50.068;8.154;2023-02-28T12:35:32;8.20;49.70
3638;DHT22;1835;50.068;8.154;2023-02-28T12:38:05;8.30;49.80
3638;DHT22;1835;50.068;8.154;2023-02-28T12:40:43;8.10;49.10
3638;DHT22;1835;50.068;8.154;2023-02-28T12:43:17;8.00;48.30
3638;DHT22;1835;50.068;8.154;2023-02-28T12:45:49;7.70;49.00
3638;DHT22;1835;50.068;8.154;2023-02-28T12:48:24;8.00;49.30
3638;DHT22;1835;50.068;8.154;2023-02-28T12:50:55;8.20;48.10
3638;DHT22;1835;50.068;8.154;2023-02-28T12:53:27;8.50;47.80
3638;DHT22;1835;50.068;8.154;2023-02-28T12:56:11;8.60;47.90
3638;DHT22;1835;50.068;8.154;2023-02-28T12:58:48;8.80;48.20
3638;DHT22;1835;50.068;8.154;2023-02-28T13:01:33;9.00;47.80
3638;DHT22;1835;50.068;8.154;2023-02-28T13:04:36;8.70;47.00
3638;DHT22;1835;50.068;8.154;2023-02-28T13:07:49;8.70;48.30
3638;DHT22;1835;50.068;8.154;2023-02-28T13:10:40;8.70;48.20
3638;DHT22;1835;50.068;8.154;2023-02-28T13:13:15;8.60;48.40
3638;DHT22;1835;50.068;8.154;2023-02-28T13:16:03;7.50;48.00
3638;DHT22;1835;50.068;8.154;2023-02-28T13:18:34;7.10;49.30
3638;DHT22;1835;50.068;8.154;2023-02-28T13:21:06;7.10;50.70
3638;DHT22;1835;50.068;8.154;2023-02-28T13:23:41;7.30;50.00
3638;DHT22;1835;50.068;8.154;2023-02-28T13:29:52;6.90;51.00
3638;DHT22;1835;50.068;8.154;2023-02-28T13:32:33;6.70;51.10
3638;DHT22;1835;50.068;8.154;2023-02-28T13:38:37;6.30;51.90
3638;DHT22;1835;50.068;8.154;2023-02-28T13:41:44;6.50;52.50
3638;DHT22;1835;50.068;8.154;2023-02-28T13:44:15;6.40;51.70
3638;DHT22;1835;50.068;8.154;2023-02-28T13:47:22;6.60;52.50
3638;DHT22;1835;50.068;8.154;2023-02-28T13:49:53;6.60;52.20
3638;DHT22;1835;50.068;8.154;2023-02-28T13:52:23;6.30;51.90
3638;DHT22;1835;50.068;8.154;2023-02-28T13:55:03;6.30;52.90
3638;DHT22;1835;50.068;8.154;2023-02-28T13:58:00;6.20;52.70
3638;DHT22;1835;50.068;8.154;2023-02-28T14:00:44;6.20;53.40
3638;DHT22;1835;50.068;8.154;2023-02-28T14:06:25;6.30;52.90
3638;DHT22;1835;50.068;8.154;2023-02-28T14:08:58;6.30;52.90
3638;DHT22;1835;50.068;8.154;2023-02-28T14:11:33;6.20;52.90
3638;DHT22;1835;50.068;8.154;2023-02-28T14:14:05;6.40;53.50
3638;DHT22;1835;50.068;8.154;2023-02-28T14:16:40;6.50;52.70
3638;DHT22;1835;50.068;8.154;2023-02-28T14:19:13;6.40;52.90
3638;DHT22;1835;50.068;8.154;2023-02-28T14:22:01;6.50;53.20
3638;DHT22;1835;50.068;8.154;2023-02-28T14:25:08;6.40;52.90
3638;DHT22;1835;50.068;8.154;2023-02-28T14:27:47;6.50;52.80
3638;DHT22;1835;50.068;8.154;2023-02-28T14:33:40;6.10;53.60
3638;DHT22;1835;50.068;8.154;2023-02-28T14:36:20;5.90;54.80
3638;DHT22;1835;50.068;8.154;2023-02-28T14:38:52;6.20;55.00
3638;DHT22;1835;50.068;8.154;2023-02-28T14:41:28;6.30;54.20
3638;DHT22;1835;50.068;8.154;2023-02-28T14:44:01;6.40;54.50
3638;DHT22;1835;50.068;8.154;2023-02-28T14:46:36;6.50;53.50
3638;DHT22;1835;50.068;8.154;2023-02-28T14:49:07;6.20;53.40
3638;DHT22;1835;50.068;8.154;2023-02-28T14:51:44;6.10;53.50
3638;DHT22;1835;50.068;8.154;2023-02-28T14:54:16;6.00;53.40
3638;DHT22;1835;50.068;8.154;2023-02-28T14:56:53;6.00;54.60
3638;DHT22;1835;50.068;8.154;2023-02-28T14:59:25;6.10;54.30
3638;DHT22;1835;50.068;8.154;2023-02-28T15:02:18;6.10;54.10
3638;DHT22;1835;50.068;8.154;2023-02-28T15:04:55;6.00;54.10
3638;DHT22;1835;50.068;8.154;2023-02-28T15:07:25;6.30;54.60
3638;DHT22;1835;50.068;8.154;2023-02-28T15:10:10;6.30;54.60
3638;DHT22;1835;50.068;8.154;2023-02-28T15:12:41;6.10;54.90
3638;DHT22;1835;50.068;8.154;2023-02-28T15:15:16;6.00;55.40
3638;DHT22;1835;50.068;8.154;2023-02-28T15:17:48;6.10;56.10
3638;DHT22;1835;50.068;8.154;2023-02-28T15:20:18;5.90;55.40
3638;DHT22;1835;50.068;8.154;2023-02-28T15:22:47;6.10;55.80
3638;DHT22;1835;50.068;8.154;2023-02-28T15:25:21;6.00;55.00
3638;DHT22;1835;50.068;8.154;2023-02-28T15:27:51;6.00;55.50
3638;DHT22;1835;50.068;8.154;2023-02-28T15:30:24;6.20;55.60
3638;DHT22;1835;50.068;8.154;2023-02-28T15:33:17;6.10;55.90
3638;DHT22;1835;50.068;8.154;2023-02-28T15:35:46;6.10;55.80
3638;DHT22;1835;50.068;8.154;2023-02-28T15:38:17;6.20;55.40
3638;DHT22;1835;50.068;8.154;2023-02-28T15:40:52;6.00;55.90
3638;DHT22;1835;50.068;8.154;2023-02-28T15:43:26;6.10;56.10
3638;DHT22;1835;50.068;8.154;2023-02-28T15:45:59;5.90;56.20
3638;DHT22;1835;50.068;8.154;2023-02-28T15:48:31;6.00;56.70
3638;DHT22;1835;50.068;8.154;2023-02-28T15:51:05;6.20;56.40
3638;DHT22;1835;50.068;8.154;2023-02-28T15:53:37;6.30;56.00
3638;DHT22;1835;50.068;8.154;2023-02-28T15:56:22;6.30;56.30
3638;DHT22;1835;50.068;8.154;2023-02-28T15:58:53;6.40;56.00
3638;DHT22;1835;50.068;8.154;2023-02-28T16:01:25;6.30;55.90
3638;DHT22;1835;50.068;8.154;2023-02-28T16:03:58;6.30;55.90
3638;DHT22;1835;50.068;8.154;2023-02-28T16:06:37;6.20;56.70
3638;DHT22;1835;50.068;8.154;2023-02-28T16:09:11;6.00;56.60
3638;DHT22;1835;50.068;8.154;2023-02-28T16:11:46;6.00;57.30
3638;DHT22;1835;50.068;8.154;2023-02-28T16:14:18;5.70;57.90
3638;DHT22;1835;50.068;8.154;2023-02-28T16:16:51;5.90;57.70
3638;DHT22;1835;50.068;8.154;2023-02-28T16:19:21;5.70;57.50
3638;DHT22;1835;50.068;8.154;2023-02-28T16:21:49;5.70;57.80
3638;DHT22;1835;50.068;8.154;2023-02-28T16:24:17;5.50;58.20
3638;DHT22;1835;50.068;8.154;2023-02-28T16:26:48;5.50;58.10
3638;DHT22;1835;50.068;8.154;2023-02-28T16:29:23;5.50;58.30
3638;DHT22;1835;50.068;8.154;2023-02-28T16:31:53;5.40;58.80
3638;DHT22;1835;50.068;8.154;2023-02-28T16:34:21;5.30;59.40
3638;DHT22;1835;50.068;8.154;2023-02-28T16:36:50;5.30;60.10
3638;DHT22;1835;50.068;8.154;2023-02-28T16:39:18;5.20;59.40
3638;DHT22;1835;50.068;8.154;2023-02-28T16:41:49;5.40;59.20
3638;DHT22;1835;50.068;8.154;2023-02-28T16:44:27;5.40;59.30
3638;DHT22;1835;50.068;8.154;2023-02-28T16:46:56;5.20;59.00
3638;DHT22;1835;50.068;8.154;2023-02-28T16:49:24;5.30;59.90
3638;DHT22;1835;50.068;8.154;2023-02-28T16:51:53;5.20;59.40
3638;DHT22;1835;50.068;8.154;2023-02-28T16:54:21;5.10;59.90
3638;DHT22;1835;50.068;8.154;2023-02-28T16:56:51;5.00;59.80
3638;DHT22;1835;50.068;8.154;2023-02-28T16:59:23;5.10;59.90
3638;DHT22;1835;50.068;8.154;2023-02-28T17:01:52;5.20;60.30
3638;DHT22;1835;50.068;8.154;2023-02-28T17:04:20;5.30;59.70
3638;DHT22;1835;50.068;8.154;2023-02-28T17:06:48;5.40;59.40
3638;DHT22;1835;50.068;8.154;2023-02-28T17:09:18;5.20;59.20
3638;DHT22;1835;50.068;8.154;2023-02-28T17:11:57;5.10;60.40
3638;DHT22;1835;50.068;8.154;2023-02-28T17:14:25;5.00;60.50
3638;DHT22;1835;50.068;8.154;2023-02-28T17:16:53;5.10;60.30